Deer Harbor, WA (98243)

1:16 PM PDT on August 30, 2014 (GMT -0700)
Orcas West | Change Station
CLOSE
Current Station
Personal Weather Station
Location: Deer Harbor, WA
Elevation: 220 ft
Nearby Weather Stations

Elev 220 ft 48.63 °N, 123.02 °W | Updated 12 minutes ago

Overcast
Overcast
63.6 °F
Feels Like 63.6 °F
N
0.0
Wind Variable Wind from NE
Gusts 5.0 mph

Today
High -- | Low -- °F
--% Chance of Precip.
Yesterday
High -- | Low -- °F
Precip. -- in
6:26 AM 7:57 PM
Waxing Crescent, 24% visible
Pressure 29.91 in
Visibility 10.0 miles
Clouds Scattered Clouds 1600 ft
Mostly Cloudy 7500 ft
Overcast 10000 ft
Dew Point 57 °F
Humidity 80%
Rainfall 0.00 in
Snow Depth Not available.
UV 2 out of 12
Pollen .60 out of 12
Air Quality Not available.
Flu Activity Not available.
METAR KFHR 301953Z AUTO 11005KT 10SM SCT016 BKN075 OVC100 19/13 A2991 RMK AO2 SLP127 T01890128

More Conditions Fewer Conditions

Pressure 29.91 in
Visibility 10.0 miles
Clouds Scattered Clouds 1600 ft
Mostly Cloudy 7500 ft
Overcast 10000 ft
Dew Point 57 °F
Humidity 80%
Rainfall 0.00 in
Snow Depth Not available.
UV 2 out of 12
Pollen .60 out of 12
Air Quality Not available.
Flu Activity Not available.
METAR KFHR 301953Z AUTO 11005KT 10SM SCT016 BKN075 OVC100 19/13 A2991 RMK AO2 SLP127 T01890128

More Conditions Fewer Conditions

10-Day Weather Forecast

Almanac

Astronomy

Aug. 30, 2014 Rise Set
Actual Time 6:26 AM PDT 7:57 PM PDT
Civil Twilight 5:53 AM PDT 8:30 PM PDT
Nautical Twilight 5:13 AM PDT 9:10 PM PDT
Astronomical Twilight 4:30 AM PDT 9:53 PM PDT
Moon 11:46 AM PDT 10:07 PM PDT
Length of Visible Light 14h 36m
Length of Day
13h 31m
Tomorrow will be 3m 25s shorter.
Waxing Crescent, 24% of the Moon is Illuminated
Today
Waxing Crescent
Sep 2
First Quarter
Sep 8
Full
Sep 15
Last Quarter
Sep 24
New

Today's Extremes

State Highs State Lows

Community

WunderPhotos

Upload Photos

1,748,622 photos uploaded!

WunderBlogs® & News

Nearby

Snow Depth

Station Depth Elevation
Dungeness 0 in 4100 ft
Alpine Meadows 0 in 3500 ft
Skookum Creek 0 in 3920 ft
Rainy Pass 0 in 4780 ft
Harts Pass 0 in 6500 ft

Earthquake Activity

City Distance Mag. Time & Date
No recent earthquake activity has been reported nearby.
Minimum magnitude displayed is 2.5.

Coastal Water Temperatures

Place Temperature
Port Townsend, WA 53.1 °F
Friday Harbor, WA 53.1 °F
Port Angeles, WA 53.1 °F

Nearby Weather Stations